Time;durP1;ratioP1;P1;durP2;ratioP2;P2;SDS_P1;SDS_P2;PMS_P1;PMS_P2;Temp;Humidity;BMP_temperature;BMP_pressure;BME280_temperature;BME280_humidity;BME280_pressure;Samples;Min_cycle;Max_cycle;Signal;HPM_P1;HPM_P2
2023/04/21 00:00:24;;;;;;;26.00;17.07;;;;;;;;;;4398533;32;319252;-82
2023/04/21 00:02:50;;;;;;;27.47;19.37;;;;;;;;;;4388163;32;319453;-83
2023/04/21 00:05:17;;;;;;;32.10;20.73;;;;;;;;;;4397894;32;319271;-82
2023/04/21 00:07:44;;;;;;;48.93;28.27;;;;;;;;;;4396629;32;319156;-81
2023/04/21 00:10:12;;;;;;;52.67;29.13;;;;;;;;;;4385977;32;418800;-82
2023/04/21 00:12:38;;;;;;;49.30;29.40;;;;;;;;;;4401206;32;319446;-82
2023/04/21 00:15:08;;;;;;;49.90;30.47;;;;;;;;;;4388320;32;319121;-81
2023/04/21 00:17:35;;;;;;;59.87;34.00;;;;;;;;;;4397717;32;319258;-82
2023/04/21 00:20:03;;;;;;;58.00;31.47;;;;;;;;;;4388231;32;319270;-81
2023/04/21 00:22:32;;;;;;;54.37;32.60;;;;;;;;;;4396932;32;345109;-82
2023/04/21 00:24:58;;;;;;;49.27;31.77;;;;;;;;;;4387775;32;319703;-81
2023/04/21 00:27:25;;;;;;;53.70;31.60;;;;;;;;;;4396912;32;319298;-82
2023/04/21 00:29:52;;;;;;;47.43;28.93;;;;;;;;;;4385808;32;351728;-80
2023/04/21 00:32:20;;;;;;;44.13;27.63;;;;;;;;;;4397771;32;319457;-81
2023/04/21 00:34:47;;;;;;;45.50;26.13;;;;;;;;;;4387915;32;319426;-84
2023/04/21 00:37:13;;;;;;;39.73;25.70;;;;;;;;;;4397512;32;319428;-83
2023/04/21 00:39:40;;;;;;;40.97;25.00;;;;;;;;;;4396633;32;319655;-80
2023/04/21 00:42:07;;;;;;;37.67;24.03;;;;;;;;;;4387693;32;319781;-82
2023/04/21 00:44:33;;;;;;;37.63;22.53;;;;;;;;;;4397629;32;319462;-81
2023/04/21 00:47:00;;;;;;;36.70;23.23;;;;;;;;;;4387068;32;319236;-82
2023/04/21 00:49:29;;;;;;;40.73;25.40;;;;;;;;;;4397182;32;318792;-82
2023/04/21 00:51:57;;;;;;;33.87;24.33;;;;;;;;;;4387323;32;319477;-80
2023/04/21 00:54:24;;;;;;;43.27;25.43;;;;;;;;;;4382442;32;319292;-80
2023/04/21 00:56:51;;;;;;;38.43;25.13;;;;;;;;;;4371372;32;319291;-81
2023/04/21 00:59:18;;;;;;;36.53;24.20;;;;;;;;;;4381271;32;319181;-79
2023/04/21 01:01:45;;;;;;;38.23;24.60;;;;;;;;;;4382633;32;319472;-82
2023/04/21 01:04:12;;;;;;;33.33;23.23;;;;;;;;;;4396078;32;319367;-81
2023/04/21 01:06:41;;;;;;;34.73;23.17;;;;;;;;;;4396022;32;352122;-81
2023/04/21 01:09:08;;;;;;;41.93;25.97;;;;;;;;;;4385652;32;347363;-81
2023/04/21 01:11:35;;;;;;;36.40;24.83;;;;;;;;;;4397593;32;318408;-82
2023/04/21 01:14:03;;;;;;;34.33;23.57;;;;;;;;;;4386245;32;318683;-80
2023/04/21 01:16:31;;;;;;;34.70;22.50;;;;;;;;;;4396549;32;319176;-80
2023/04/21 01:19:00;;;;;;;27.10;19.70;;;;;;;;;;4386104;32;320601;-80
2023/04/21 01:21:27;;;;;;;29.80;20.00;;;;;;;;;;4397292;32;319148;-82
2023/04/21 01:23:55;;;;;;;26.90;17.73;;;;;;;;;;4386089;32;319595;-81
2023/04/21 01:26:22;;;;;;;25.57;16.23;;;;;;;;;;4396170;32;319362;-81
2023/04/21 01:28:49;;;;;;;32.43;19.03;;;;;;;;;;4383744;32;351623;-80
2023/04/21 01:31:17;;;;;;;31.90;16.97;;;;;;;;;;4396298;32;319081;-81
2023/04/21 01:33:44;;;;;;;28.43;18.10;;;;;;;;;;4396828;32;319321;-81
2023/04/21 01:36:11;;;;;;;26.37;19.80;;;;;;;;;;4383267;32;418155;-81
2023/04/21 01:38:40;;;;;;;28.73;18.60;;;;;;;;;;4395187;32;339329;-81
2023/04/21 01:41:09;;;;;;;32.00;18.60;;;;;;;;;;4387050;32;319272;-81
2023/04/21 01:43:36;;;;;;;27.40;16.70;;;;;;;;;;4395945;32;319086;-80
2023/04/21 01:46:03;;;;;;;31.63;19.33;;;;;;;;;;4384815;32;319647;-81
2023/04/21 01:48:30;;;;;;;31.73;18.17;;;;;;;;;;4387222;32;319086;-81
2023/04/21 01:50:57;;;;;;;26.97;18.50;;;;;;;;;;4377749;32;351621;-80
2023/04/21 01:53:25;;;;;;;32.43;19.03;;;;;;;;;;4401390;32;319214;-80
2023/04/21 01:55:52;;;;;;;30.83;17.93;;;;;;;;;;4386262;32;319361;-81
2023/04/21 01:58:20;;;;;;;34.30;20.43;;;;;;;;;;4396132;32;343330;-80
2023/04/21 02:00:47;;;;;;;34.33;19.57;;;;;;;;;;4386302;32;319495;-82
2023/04/21 02:03:14;;;;;;;36.43;19.53;;;;;;;;;;4395787;32;319546;-81
2023/04/21 02:05:41;;;;;;;31.20;20.67;;;;;;;;;;4397216;32;319337;-81
2023/04/21 02:08:07;;;;;;;28.40;19.77;;;;;;;;;;4382838;32;347711;-81
2023/04/21 02:10:35;;;;;;;28.23;18.53;;;;;;;;;;4395822;32;319673;-81
2023/04/21 02:13:02;;;;;;;23.33;16.37;;;;;;;;;;4387464;32;356771;-82
2023/04/21 02:15:30;;;;;;;39.30;19.30;;;;;;;;;;4398367;32;330070;-82
2023/04/21 02:17:59;;;;;;;30.73;19.07;;;;;;;;;;4383390;32;319460;-82
2023/04/21 02:20:25;;;;;;;46.13;24.63;;;;;;;;;;4388247;32;319734;-83
2023/04/21 02:22:52;;;;;;;45.53;25.63;;;;;;;;;;4398177;32;319365;-82
2023/04/21 02:25:19;;;;;;;43.93;26.50;;;;;;;;;;4399362;32;319310;-82
2023/04/21 02:27:46;;;;;;;35.73;22.90;;;;;;;;;;4389663;32;319447;-82
2023/04/21 02:30:13;;;;;;;40.53;24.20;;;;;;;;;;4399686;32;319252;-81
2023/04/21 02:32:41;;;;;;;53.80;29.50;;;;;;;;;;4388434;32;319040;-81
2023/04/21 02:35:09;;;;;;;29.60;20.20;;;;;;;;;;4399335;32;319257;-82
2023/04/21 02:37:38;;;;;;;32.53;21.57;;;;;;;;;;4389436;32;320111;-82
2023/04/21 02:40:07;;;;;;;32.17;22.57;;;;;;;;;;4399303;32;328088;-82
2023/04/21 02:42:34;;;;;;;34.90;22.00;;;;;;;;;;4388282;32;319287;-83
2023/04/21 02:45:00;;;;;;;30.67;21.90;;;;;;;;;;4398407;32;319299;-81
2023/04/21 02:47:27;;;;;;;34.93;23.50;;;;;;;;;;4388737;32;330550;-81
2023/04/21 02:49:55;;;;;;;34.23;23.47;;;;;;;;;;4399438;32;319281;-82
2023/04/21 02:52:22;;;;;;;33.77;23.20;;;;;;;;;;4398612;32;318962;-80
2023/04/21 02:54:49;;;;;;;37.87;22.10;;;;;;;;;;4385844;32;420341;-80
2023/04/21 02:57:15;;;;;;;36.27;22.47;;;;;;;;;;4398037;32;319337;-82
2023/04/21 02:59:42;;;;;;;32.40;22.17;;;;;;;;;;4387237;32;349502;-82
2023/04/21 03:02:10;;;;;;;32.70;21.60;;;;;;;;;;4398977;32;319381;-82
2023/04/21 03:04:38;;;;;;;33.07;21.53;;;;;;;;;;4389174;32;319176;-82
2023/04/21 03:07:11;;;;;;;35.20;21.90;;;;;;;;;;4397409;32;319291;-82
2023/04/21 03:09:37;;;;;;;37.33;25.47;;;;;;;;;;4385812;32;318920;-81
2023/04/21 03:12:04;;;;;;;41.00;28.70;;;;;;;;;;4398560;32;327396;-82
2023/04/21 03:14:31;;;;;;;43.90;30.30;;;;;;;;;;4389157;32;319307;-82
2023/04/21 03:16:59;;;;;;;36.53;23.53;;;;;;;;;;4393586;32;318696;-82
2023/04/21 03:19:26;;;;;;;31.57;21.53;;;;;;;;;;4374111;32;319514;-81
2023/04/21 03:21:53;;;;;;;29.80;19.63;;;;;;;;;;4383769;32;319183;-82
2023/04/21 03:24:21;;;;;;;34.57;21.47;;;;;;;;;;4382066;32;319338;-82
2023/04/21 03:26:48;;;;;;;22.20;17.70;;;;;;;;;;4386630;32;343906;-82
2023/04/21 03:29:15;;;;;;;32.07;18.70;;;;;;;;;;4398920;32;318372;-80
2023/04/21 03:31:43;;;;;;;26.03;18.47;;;;;;;;;;4388137;32;320111;-82
2023/04/21 03:34:10;;;;;;;26.60;18.60;;;;;;;;;;4398810;32;318807;-80
2023/04/21 03:36:36;;;;;;;27.87;20.33;;;;;;;;;;4385208;32;319229;-81
2023/04/21 03:39:03;;;;;;;29.43;20.93;;;;;;;;;;4398694;32;319300;-82
2023/04/21 03:41:33;;;;;;;26.33;20.47;;;;;;;;;;4387759;32;319497;-82
2023/04/21 03:44:00;;;;;;;27.00;17.93;;;;;;;;;;4398373;32;319418;-82
2023/04/21 03:46:26;;;;;;;39.53;24.73;;;;;;;;;;4387360;32;319321;-83
2023/04/21 03:48:53;;;;;;;41.03;23.17;;;;;;;;;;4398314;32;319189;-82
2023/04/21 03:51:22;;;;;;;32.80;22.20;;;;;;;;;;4398622;32;318928;-82
2023/04/21 03:53:49;;;;;;;33.27;21.60;;;;;;;;;;4385530;32;419142;-82
2023/04/21 03:56:16;;;;;;;33.67;24.67;;;;;;;;;;4398420;32;319255;-82
2023/04/21 03:58:44;;;;;;;36.97;25.77;;;;;;;;;;4388478;32;319384;-82
2023/04/21 04:01:11;;;;;;;39.40;27.73;;;;;;;;;;4397292;32;357504;-80
2023/04/21 04:03:38;;;;;;;35.27;26.70;;;;;;;;;;4388277;32;324136;-82
2023/04/21 04:06:05;;;;;;;48.70;28.83;;;;;;;;;;4398148;32;317824;-80
2023/04/21 04:08:32;;;;;;;42.27;28.50;;;;;;;;;;4387811;32;319455;-80
2023/04/21 04:10:58;;;;;;;43.50;26.27;;;;;;;;;;4397252;32;319319;-82
2023/04/21 04:13:26;;;;;;;34.60;24.17;;;;;;;;;;4384394;32;358816;-82
2023/04/21 04:15:54;;;;;;;39.27;25.20;;;;;;;;;;4396989;32;319394;-82
2023/04/21 04:18:21;;;;;;;39.27;25.33;;;;;;;;;;4397632;32;319401;-83
2023/04/21 04:20:49;;;;;;;65.47;38.90;;;;;;;;;;4387681;32;319216;-82
2023/04/21 04:23:16;;;;;;;76.67;44.00;;;;;;;;;;4398263;32;319777;-83
2023/04/21 04:25:43;;;;;;;62.30;33.90;;;;;;;;;;4387422;32;319295;-83
2023/04/21 04:28:11;;;;;;;43.83;30.87;;;;;;;;;;4396916;32;327874;-82
2023/04/21 04:30:38;;;;;;;42.00;29.03;;;;;;;;;;4388503;32;319712;-82
2023/04/21 04:33:06;;;;;;;49.97;27.63;;;;;;;;;;4398005;32;319550;-83
2023/04/21 04:35:33;;;;;;;41.17;27.50;;;;;;;;;;4390709;32;319229;-81
2023/04/21 04:38:01;;;;;;;49.60;30.40;;;;;;;;;;4405640;32;318595;-81
2023/04/21 04:40:29;;;;;;;65.67;31.97;;;;;;;;;;4393206;32;319317;-82
2023/04/21 04:42:55;;;;;;;70.33;33.57;;;;;;;;;;4403224;32;319428;-80
2023/04/21 04:45:22;;;;;;;59.97;37.40;;;;;;;;;;4406236;32;318113;-81
2023/04/21 04:47:52;;;;;;;63.80;39.17;;;;;;;;;;4386854;32;420028;-81
2023/04/21 04:50:20;;;;;;;74.43;42.23;;;;;;;;;;4399341;32;319260;-83
2023/04/21 04:52:48;;;;;;;70.57;36.50;;;;;;;;;;4394658;32;319323;-81
2023/04/21 04:55:17;;;;;;;60.03;34.27;;;;;;;;;;4397848;32;319232;-82
2023/04/21 04:57:44;;;;;;;61.10;31.90;;;;;;;;;;4381886;32;319097;-82
2023/04/21 05:00:14;;;;;;;44.43;26.70;;;;;;;;;;4395449;32;318274;-82
2023/04/21 05:02:41;;;;;;;53.63;28.10;;;;;;;;;;4377558;32;343070;-82
2023/04/21 05:05:08;;;;;;;47.00;26.70;;;;;;;;;;4375944;32;318903;-82
2023/04/21 05:07:37;;;;;;;50.53;28.97;;;;;;;;;;4362956;32;319496;-83
2023/04/21 05:10:04;;;;;;;60.70;29.67;;;;;;;;;;4380147;32;319779;-83
2023/04/21 05:12:32;;;;;;;56.50;29.20;;;;;;;;;;4370682;32;319257;-83
2023/04/21 05:14:59;;;;;;;42.73;27.03;;;;;;;;;;4382814;32;327638;-82
2023/04/21 05:17:27;;;;;;;36.07;26.90;;;;;;;;;;4373996;32;354468;-84
2023/04/21 05:19:54;;;;;;;44.63;26.87;;;;;;;;;;4399183;32;319301;-85
2023/04/21 05:22:22;;;;;;;40.73;28.20;;;;;;;;;;4397495;32;319931;-84
2023/04/21 05:24:50;;;;;;;51.80;29.50;;;;;;;;;;4379203;32;318779;-83
2023/04/21 05:27:17;;;;;;;49.83;29.33;;;;;;;;;;4396754;32;319099;-84
2023/04/21 05:29:44;;;;;;;36.93;23.33;;;;;;;;;;4386380;32;319614;-86
2023/04/21 05:32:11;;;;;;;33.57;23.00;;;;;;;;;;4395893;32;319752;-84
2023/04/21 05:34:38;;;;;;;25.67;19.23;;;;;;;;;;4386729;32;319281;-83
2023/04/21 05:37:05;;;;;;;29.23;20.30;;;;;;;;;;4396050;32;319513;-84
2023/04/21 05:39:31;;;;;;;30.47;19.57;;;;;;;;;;4383135;32;359279;-82
2023/04/21 05:42:01;;;;;;;29.97;18.57;;;;;;;;;;4397690;32;318925;-83
2023/04/21 05:44:27;;;;;;;32.27;20.43;;;;;;;;;;4388591;32;319199;-82
2023/04/21 05:46:54;;;;;;;31.67;21.60;;;;;;;;;;4399709;32;319430;-81
2023/04/21 05:49:21;;;;;;;28.93;21.00;;;;;;;;;;4401484;32;319570;-82
2023/04/21 05:51:48;;;;;;;27.50;20.73;;;;;;;;;;4390452;32;319645;-82
2023/04/21 05:54:15;;;;;;;31.23;22.57;;;;;;;;;;4400518;32;324340;-84
2023/04/21 05:56:42;;;;;;;31.30;22.77;;;;;;;;;;4390556;32;319321;-84
2023/04/21 05:59:10;;;;;;;33.90;21.40;;;;;;;;;;4398604;32;318762;-82
2023/04/21 06:01:37;;;;;;;30.37;19.50;;;;;;;;;;4387650;32;319278;-82
2023/04/21 06:04:03;;;;;;;25.97;17.57;;;;;;;;;;4398687;32;319736;-83
2023/04/21 06:06:32;;;;;;;24.70;16.50;;;;;;;;;;4389359;32;319141;-82
2023/04/21 06:08:58;;;;;;;21.33;16.20;;;;;;;;;;4399337;32;318957;-82
2023/04/21 06:11:25;;;;;;;25.17;16.37;;;;;;;;;;4389402;32;349208;-84
2023/04/21 06:13:53;;;;;;;24.37;16.83;;;;;;;;;;4400427;32;319412;-83
2023/04/21 06:16:21;;;;;;;29.13;18.77;;;;;;;;;;4398909;32;319516;-81
2023/04/21 06:18:49;;;;;;;28.70;21.77;;;;;;;;;;4388792;32;319458;-83
2023/04/21 06:21:16;;;;;;;40.70;23.17;;;;;;;;;;4398022;32;319233;-82
2023/04/21 06:23:43;;;;;;;29.40;23.37;;;;;;;;;;4391182;32;319607;-84
2023/04/21 06:26:10;;;;;;;32.13;23.13;;;;;;;;;;4399605;32;319271;-82
2023/04/21 06:28:38;;;;;;;34.67;24.03;;;;;;;;;;4388220;32;319491;-82
2023/04/21 06:31:04;;;;;;;33.20;22.60;;;;;;;;;;4398999;32;319590;-85
2023/04/21 06:33:33;;;;;;;38.83;27.60;;;;;;;;;;4390310;32;319319;-81
2023/04/21 06:35:59;;;;;;;45.33;30.10;;;;;;;;;;4399444;32;319426;-81
2023/04/21 06:38:28;;;;;;;53.60;33.73;;;;;;;;;;4389398;32;319524;-81
2023/04/21 06:40:54;;;;;;;53.00;36.80;;;;;;;;;;4401201;32;319278;-82
2023/04/21 06:43:21;;;;;;;53.97;36.87;;;;;;;;;;4401201;32;319780;-80
2023/04/21 06:45:48;;;;;;;55.37;35.70;;;;;;;;;;4387624;32;319785;-81
2023/04/21 06:48:15;;;;;;;60.83;36.93;;;;;;;;;;4397737;32;319435;-82
2023/04/21 06:50:45;;;;;;;62.13;36.73;;;;;;;;;;4387936;32;319805;-83
2023/04/21 06:53:11;;;;;;;52.47;35.93;;;;;;;;;;4389670;32;351699;-83
2023/04/21 06:55:38;;;;;;;64.53;35.07;;;;;;;;;;4383008;32;318641;-81
2023/04/21 06:58:05;;;;;;;49.17;31.77;;;;;;;;;;4384848;32;319224;-83
2023/04/21 07:00:32;;;;;;;39.70;26.07;;;;;;;;;;4377894;32;319368;-82
2023/04/21 07:02:59;;;;;;;35.93;23.87;;;;;;;;;;4389807;32;319379;-82
2023/04/21 07:05:26;;;;;;;28.97;20.00;;;;;;;;;;4374639;32;319498;-83
2023/04/21 07:07:58;;;;;;;30.27;19.63;;;;;;;;;;4383240;32;319347;-83
2023/04/21 07:10:25;;;;;;;23.13;17.70;;;;;;;;;;4377268;32;319240;-84
2023/04/21 07:12:53;;;;;;;26.70;17.20;;;;;;;;;;4397157;32;318804;-83
2023/04/21 07:15:20;;;;;;;22.97;16.37;;;;;;;;;;4397368;32;319486;-82
2023/04/21 07:17:48;;;;;;;19.43;16.10;;;;;;;;;;4387173;32;330203;-83
2023/04/21 07:20:16;;;;;;;18.47;14.47;;;;;;;;;;4398627;32;319347;-83
2023/04/21 07:22:43;;;;;;;20.27;14.53;;;;;;;;;;4387090;32;319361;-83
2023/04/21 07:25:11;;;;;;;19.80;13.53;;;;;;;;;;4392998;32;318848;-82
2023/04/21 07:27:41;;;;;;;20.60;12.30;;;;;;;;;;4389103;32;319670;-81
2023/04/21 07:30:09;;;;;;;17.53;12.50;;;;;;;;;;4396597;32;319155;-82
2023/04/21 07:32:37;;;;;;;19.30;12.40;;;;;;;;;;4387023;32;319323;-82
2023/04/21 07:35:04;;;;;;;16.63;11.80;;;;;;;;;;4397069;32;319247;-82
2023/04/21 07:37:31;;;;;;;15.57;11.90;;;;;;;;;;4388163;32;319373;-83
2023/04/21 07:39:59;;;;;;;18.83;11.53;;;;;;;;;;4398006;32;319259;-83
2023/04/21 07:42:27;;;;;;;17.27;11.47;;;;;;;;;;4384952;32;318978;-82
2023/04/21 07:44:55;;;;;;;15.87;11.43;;;;;;;;;;4397629;32;318529;-83
2023/04/21 07:47:21;;;;;;;17.73;13.00;;;;;;;;;;4397679;32;319311;-81
2023/04/21 07:49:48;;;;;;;13.20;11.27;;;;;;;;;;4387889;32;318744;-81
2023/04/21 07:52:15;;;;;;;17.80;11.50;;;;;;;;;;4396802;32;319495;-83
2023/04/21 07:54:41;;;;;;;14.23;10.87;;;;;;;;;;4386919;32;318599;-81
2023/04/21 07:57:08;;;;;;;16.07;10.63;;;;;;;;;;4398011;32;319601;-82
2023/04/21 07:59:36;;;;;;;17.67;10.03;;;;;;;;;;4387909;32;319454;-82
2023/04/21 08:02:03;;;;;;;17.17;10.47;;;;;;;;;;4397538;32;319462;-83
2023/04/21 08:04:30;;;;;;;13.43;10.37;;;;;;;;;;4387635;32;319421;-82
2023/04/21 08:06:57;;;;;;;11.20;10.03;;;;;;;;;;4392961;32;318755;-82
2023/04/21 08:09:24;;;;;;;14.47;9.87;;;;;;;;;;4374368;32;319234;-83
2023/04/21 08:11:51;;;;;;;16.07;9.90;;;;;;;;;;4380795;32;317619;-83
2023/04/21 08:14:18;;;;;;;14.00;10.03;;;;;;;;;;4381683;32;318043;-84
2023/04/21 08:16:46;;;;;;;12.20;7.87;;;;;;;;;;4371640;32;318975;-84
2023/04/21 08:19:14;;;;;;;11.10;7.93;;;;;;;;;;4381392;32;317838;-81
2023/04/21 08:21:43;;;;;;;18.07;7.83;;;;;;;;;;4371083;32;318262;-83
2023/04/21 08:24:11;;;;;;;7.23;5.03;;;;;;;;;;4388992;32;318355;-81
2023/04/21 08:26:37;;;;;;;8.40;6.40;;;;;;;;;;4385797;32;316564;-81
2023/04/21 08:29:06;;;;;;;13.53;6.10;;;;;;;;;;4397185;32;317197;-83
2023/04/21 08:31:32;;;;;;;9.23;5.80;;;;;;;;;;4386562;32;318588;-83
2023/04/21 08:34:01;;;;;;;9.40;6.27;;;;;;;;;;4397194;32;317667;-84
2023/04/21 08:36:28;;;;;;;15.70;5.43;;;;;;;;;;4384848;32;317251;-84
2023/04/21 08:38:55;;;;;;;11.35;6.37;;;;;;;;;;4396243;32;332780;-83
2023/04/21 08:41:24;;;;;;;5.80;5.07;;;;;;;;;;4397528;32;318316;-83
2023/04/21 08:43:51;;;;;;;6.07;5.47;;;;;;;;;;4384203;32;416701;-82
2023/04/21 08:46:18;;;;;;;7.93;4.97;;;;;;;;;;4396643;32;317050;-83
2023/04/21 08:48:46;;;;;;;11.77;5.67;;;;;;;;;;4387174;32;317547;-81
2023/04/21 08:51:19;;;;;;;6.17;5.40;;;;;;;;;;4396516;32;318448;-83
2023/04/21 08:53:46;;;;;;;8.77;6.30;;;;;;;;;;4375821;32;317940;-83
2023/04/21 08:56:12;;;;;;;8.47;5.70;;;;;;;;;;4381906;32;316628;-82
2023/04/21 08:58:40;;;;;;;11.43;6.67;;;;;;;;;;4370825;32;316530;-83
2023/04/21 09:01:07;;;;;;;9.93;6.50;;;;;;;;;;4380065;32;317905;-81
2023/04/21 09:03:34;;;;;;;9.17;6.90;;;;;;;;;;4380878;32;316486;-82
2023/04/21 09:06:02;;;;;;;12.80;6.40;;;;;;;;;;4396831;32;317205;-82
2023/04/21 09:08:30;;;;;;;10.27;6.40;;;;;;;;;;4386396;32;318615;-82
2023/04/21 09:10:58;;;;;;;20.83;6.72;;;;;;;;;;4396084;32;317503;-82
2023/04/21 09:13:30;;;;;;;11.03;6.67;;;;;;;;;;4386438;32;319244;-83
2023/04/21 09:15:57;;;;;;;10.27;6.40;;;;;;;;;;4396155;32;352854;-82
2023/04/21 09:18:27;;;;;;;10.07;7.10;;;;;;;;;;4390952;32;318557;-85
2023/04/21 09:21:06;;;;;;;8.15;5.93;;;;;;;;;;4396052;32;318011;-82
2023/04/21 09:23:40;;;;;;;13.43;6.10;;;;;;;;;;4379896;32;317670;-82
2023/04/21 09:26:07;;;;;;;6.15;4.95;;;;;;;;;;4403541;32;318069;-83
2023/04/21 09:28:34;;;;;;;8.13;5.32;;;;;;;;;;4387725;32;317195;-83
2023/04/21 09:31:02;;;;;;;7.03;4.90;;;;;;;;;;4395972;32;338200;-82
2023/04/21 09:33:33;;;;;;;4.27;3.87;;;;;;;;;;4385040;32;317332;-81
2023/04/21 09:36:02;;;;;;;9.07;4.70;;;;;;;;;;4396801;32;317195;-83
2023/04/21 09:38:28;;;;;;;5.97;4.68;;;;;;;;;;4387405;32;317314;-83
2023/04/21 09:41:00;;;;;;;7.07;5.37;;;;;;;;;;4396779;32;316405;-82
2023/04/21 09:43:27;;;;;;;11.95;6.10;;;;;;;;;;4386225;32;317318;-83
2023/04/21 09:45:55;;;;;;;9.98;5.93;;;;;;;;;;4395277;32;317663;-81
2023/04/21 09:48:24;;;;;;;4.80;4.30;;;;;;;;;;4395871;32;317653;-82
2023/04/21 09:50:52;;;;;;;5.33;4.53;;;;;;;;;;4383895;32;417985;-82
2023/04/21 09:53:24;;;;;;;7.23;4.97;;;;;;;;;;4387622;32;317245;-83
2023/04/21 09:55:55;;;;;;;6.05;5.15;;;;;;;;;;4368034;32;416689;-82
2023/04/21 09:58:25;;;;;;;14.73;5.65;;;;;;;;;;4381602;32;317716;-81
2023/04/21 10:00:55;;;;;;;6.87;4.90;;;;;;;;;;4382750;32;417481;-84
2023/04/21 10:03:26;;;;;;;6.40;5.50;;;;;;;;;;4395810;32;317192;-80
2023/04/21 10:05:53;;;;;;;6.68;5.05;;;;;;;;;;4383983;32;416413;-82
2023/04/21 10:08:21;;;;;;;5.12;4.32;;;;;;;;;;4396832;32;317293;-82
2023/04/21 10:10:49;;;;;;;7.67;5.03;;;;;;;;;;4385304;32;316405;-83
2023/04/21 10:13:17;;;;;;;8.87;4.53;;;;;;;;;;4396850;32;316518;-83
2023/04/21 10:15:45;;;;;;;6.97;4.72;;;;;;;;;;4385100;32;328721;-82
2023/04/21 10:18:15;;;;;;;8.55;3.95;;;;;;;;;;4397014;32;317056;-83
2023/04/21 10:20:55;;;;;;;6.87;4.27;;;;;;;;;;4384700;32;329370;-84
2023/04/21 10:23:36;;;;;;;7.15;4.32;;;;;;;;;;4396865;32;317219;-83
2023/04/21 10:26:06;;;;;;;6.35;3.62;;;;;;;;;;4382981;32;418118;-83
2023/04/21 10:28:53;;;;;;;7.60;5.55;;;;;;;;;;4386003;32;317611;-83
2023/04/21 10:31:25;;;;;;;10.15;4.97;;;;;;;;;;4396485;32;317073;-83
2023/04/21 10:34:18;;;;;;;7.93;3.95;;;;;;;;;;4385831;32;418466;-83
2023/04/21 10:37:19;;;;;;;9.95;4.03;;;;;;;;;;4386958;32;346254;-81
2023/04/21 10:39:52;;;;;;;7.60;4.40;;;;;;;;;;4389505;32;319823;-83
2023/04/21 10:42:26;;;;;;;5.65;3.92;;;;;;;;;;4398049;32;317164;-83
2023/04/21 10:45:02;;;;;;;8.27;4.30;;;;;;;;;;4386317;32;419232;-83
2023/04/21 10:47:36;;;;;;;6.30;4.80;;;;;;;;;;4388496;32;316444;-82
2023/04/21 10:50:19;;;;;;;7.40;4.28;;;;;;;;;;4397827;32;317521;-81
2023/04/21 10:52:47;;;;;;;7.28;4.78;;;;;;;;;;4389034;32;317004;-84
2023/04/21 10:55:15;;;;;;;7.35;4.40;;;;;;;;;;4397693;32;317572;-83
2023/04/21 10:57:45;;;;;;;6.70;4.50;;;;;;;;;;4387962;32;317563;-83
2023/04/21 11:00:15;;;;;;;5.43;4.10;;;;;;;;;;4398620;32;316589;-81
2023/04/21 11:02:44;;;;;;;12.75;4.43;;;;;;;;;;4388246;32;317253;-81
2023/04/21 11:05:11;;;;;;;6.90;3.90;;;;;;;;;;4398959;32;317603;-82
2023/04/21 11:07:37;;;;;;;9.90;3.67;;;;;;;;;;4388039;32;317597;-83
2023/04/21 11:10:06;;;;;;;6.78;4.30;;;;;;;;;;4399369;32;317261;-83
2023/04/21 11:12:37;;;;;;;9.88;4.72;;;;;;;;;;4388974;32;319057;-83
2023/04/21 11:15:07;;;;;;;6.80;3.67;;;;;;;;;;4398673;32;316562;-81
2023/04/21 11:17:34;;;;;;;13.77;3.70;;;;;;;;;;4389251;32;317061;-83
2023/04/21 11:20:05;;;;;;;9.73;3.55;;;;;;;;;;4397799;32;317735;-83
2023/04/21 11:22:33;;;;;;;7.67;3.80;;;;;;;;;;4386675;32;317680;-83
2023/04/21 11:25:00;;;;;;;8.02;3.47;;;;;;;;;;4397509;32;356491;-83
2023/04/21 11:27:29;;;;;;;7.85;4.15;;;;;;;;;;4387235;32;317227;-83
2023/04/21 11:29:57;;;;;;;6.22;3.50;;;;;;;;;;4397473;32;318029;-81
2023/04/21 11:32:25;;;;;;;4.60;3.97;;;;;;;;;;4398413;32;316497;-84
2023/04/21 11:34:53;;;;;;;7.12;4.45;;;;;;;;;;4378835;32;418104;-81
2023/04/21 11:37:26;;;;;;;9.05;4.50;;;;;;;;;;4389344;32;317141;-84
2023/04/21 11:39:58;;;;;;;7.00;4.22;;;;;;;;;;4384936;32;416521;-83
2023/04/21 11:42:25;;;;;;;4.50;3.58;;;;;;;;;;4388560;32;317454;-82
2023/04/21 11:44:54;;;;;;;5.78;4.32;;;;;;;;;;4397189;32;316495;-84
2023/04/21 11:47:23;;;;;;;5.00;3.53;;;;;;;;;;4399011;32;316591;-83
2023/04/21 11:49:53;;;;;;;8.55;4.07;;;;;;;;;;4387966;32;389091;-81
2023/04/21 11:52:21;;;;;;;6.03;4.22;;;;;;;;;;4398959;32;316866;-80
2023/04/21 11:54:54;;;;;;;6.85;3.87;;;;;;;;;;4385064;32;343121;-80
2023/04/21 11:57:23;;;;;;;8.63;4.22;;;;;;;;;;4383725;32;317126;-80
2023/04/21 11:59:50;;;;;;;11.60;4.05;;;;;;;;;;4377933;32;316916;-82
2023/04/21 12:02:23;;;;;;;10.20;3.70;;;;;;;;;;4389996;32;317837;-81
2023/04/21 12:04:58;;;;;;;5.15;3.92;;;;;;;;;;4373910;32;418985;-80
2023/04/21 12:07:26;;;;;;;4.10;3.58;;;;;;;;;;4372330;32;317616;-80
2023/04/21 12:09:55;;;;;;;6.50;4.82;;;;;;;;;;4383992;32;316994;-80
2023/04/21 12:12:22;;;;;;;6.62;3.90;;;;;;;;;;4383894;32;316983;-82
2023/04/21 12:14:49;;;;;;;10.02;3.97;;;;;;;;;;4376726;32;317318;-82
2023/04/21 12:17:16;;;;;;;12.65;6.75;;;;;;;;;;4389197;32;318084;-82
2023/04/21 12:19:43;;;;;;;9.50;4.90;;;;;;;;;;4386594;32;350371;-80
2023/04/21 12:22:13;;;;;;;6.12;4.47;;;;;;;;;;4383910;32;317094;-81
2023/04/21 12:24:41;;;;;;;4.32;3.92;;;;;;;;;;4372864;32;317196;-82
2023/04/21 12:27:10;;;;;;;4.93;3.60;;;;;;;;;;4398047;32;317643;-82
2023/04/21 12:29:37;;;;;;;5.12;3.78;;;;;;;;;;4388033;32;317233;-81
2023/04/21 12:32:05;;;;;;;11.55;6.45;;;;;;;;;;4397005;32;317005;-82
2023/04/21 12:34:31;;;;;;;13.10;5.97;;;;;;;;;;4380877;32;318440;-82
2023/04/21 12:36:58;;;;;;;8.45;5.43;;;;;;;;;;4407224;32;318328;-82
2023/04/21 12:39:25;;;;;;;5.65;4.22;;;;;;;;;;4388695;32;317500;-82
2023/04/21 12:41:52;;;;;;;7.40;5.30;;;;;;;;;;4395475;32;355362;-81
2023/04/21 12:44:20;;;;;;;9.52;4.97;;;;;;;;;;4397639;32;317224;-82
2023/04/21 12:46:49;;;;;;;11.68;6.37;;;;;;;;;;4386603;32;317281;-81
2023/04/21 12:49:16;;;;;;;5.55;4.20;;;;;;;;;;4396457;32;318520;-80
2023/04/21 12:51:43;;;;;;;7.25;4.68;;;;;;;;;;4387559;32;317394;-80
2023/04/21 12:54:10;;;;;;;5.60;4.85;;;;;;;;;;4382480;32;316708;-81
2023/04/21 12:56:38;;;;;;;9.25;5.20;;;;;;;;;;4371765;32;316327;-81
2023/04/21 12:59:05;;;;;;;7.12;4.25;;;;;;;;;;4381192;32;316732;-80
2023/04/21 13:01:33;;;;;;;5.78;3.87;;;;;;;;;;4371607;32;316700;-80
2023/04/21 13:04:00;;;;;;;5.87;3.83;;;;;;;;;;4382089;32;317420;-84
2023/04/21 13:06:27;;;;;;;8.63;4.00;;;;;;;;;;4371604;32;352564;-83
2023/04/21 13:08:54;;;;;;;8.45;3.53;;;;;;;;;;4381678;32;317292;-82
2023/04/21 13:11:22;;;;;;;5.60;3.50;;;;;;;;;;4381245;32;317195;-81
2023/04/21 13:13:50;;;;;;;5.25;3.22;;;;;;;;;;4368110;32;418239;-82
2023/04/21 13:16:17;;;;;;;4.85;3.50;;;;;;;;;;4379153;32;316915;-80
2023/04/21 13:18:46;;;;;;;13.45;3.90;;;;;;;;;;4371971;32;317049;-82
2023/04/21 13:21:13;;;;;;;6.80;3.83;;;;;;;;;;4381185;32;318160;-80
2023/04/21 13:23:40;;;;;;;5.72;3.60;;;;;;;;;;4372975;32;317721;-82
2023/04/21 13:26:07;;;;;;;5.90;3.72;;;;;;;;;;4391611;32;317311;-82
2023/04/21 13:28:34;;;;;;;6.22;3.45;;;;;;;;;;4386264;32;317631;-82
2023/04/21 13:31:00;;;;;;;4.25;3.03;;;;;;;;;;4396054;32;317367;-83
2023/04/21 13:33:27;;;;;;;5.57;3.65;;;;;;;;;;4386829;32;317015;-84
2023/04/21 13:35:55;;;;;;;7.60;3.37;;;;;;;;;;4397403;32;317640;-83
2023/04/21 13:38:22;;;;;;;5.28;3.03;;;;;;;;;;4396107;32;320206;-82
2023/04/21 13:40:49;;;;;;;6.85;2.90;;;;;;;;;;4387551;32;317481;-81
2023/04/21 13:43:16;;;;;;;9.85;3.30;;;;;;;;;;4396295;32;318684;-83
2023/04/21 13:45:43;;;;;;;8.00;3.15;;;;;;;;;;4386208;32;317386;-84
2023/04/21 13:48:10;;;;;;;5.87;3.95;;;;;;;;;;4397931;32;317617;-83
2023/04/21 13:50:37;;;;;;;6.47;3.53;;;;;;;;;;4386365;32;327004;-81
2023/04/21 13:53:05;;;;;;;10.73;3.72;;;;;;;;;;4397457;32;317436;-84
2023/04/21 13:55:32;;;;;;;18.85;7.37;;;;;;;;;;4387569;32;319050;-81
2023/04/21 13:58:00;;;;;;;11.60;4.90;;;;;;;;;;4397007;32;318274;-80
2023/04/21 14:00:27;;;;;;;12.02;5.35;;;;;;;;;;4386257;32;318187;-82
2023/04/21 14:02:54;;;;;;;12.68;7.95;;;;;;;;;;4397182;32;318625;-80
2023/04/21 14:05:20;;;;;;;9.55;6.18;;;;;;;;;;4396101;32;318168;-81
2023/04/21 14:07:47;;;;;;;13.02;9.00;;;;;;;;;;4388077;32;334596;-80
2023/04/21 14:10:15;;;;;;;15.35;5.97;;;;;;;;;;4400022;32;318615;-79
2023/04/21 14:12:43;;;;;;;18.50;10.75;;;;;;;;;;4389792;32;318198;-80
2023/04/21 14:15:11;;;;;;;22.58;13.43;;;;;;;;;;4398859;32;345741;-80
2023/04/21 14:17:38;;;;;;;18.70;9.15;;;;;;;;;;4389399;32;343901;-82